sensor_id;sensor_type;location;lat;lon;timestamp;temperature;humidity
22623;DHT22;11478;51.094;7.030;2023-06-01T00:01:06;16.40;99.90
22623;DHT22;11478;51.094;7.030;2023-06-01T00:03:44;16.40;99.90
22623;DHT22;11478;51.094;7.030;2023-06-01T00:06:22;16.40;99.90
22623;DHT22;11478;51.094;7.030;2023-06-01T00:08:59;16.40;99.90
22623;DHT22;11478;51.094;7.030;2023-06-01T00:11:39;16.40;99.90
22623;DHT22;11478;51.094;7.030;2023-06-01T00:14:14;16.40;99.90
22623;DHT22;11478;51.094;7.030;2023-06-01T00:16:56;16.40;99.90
22623;DHT22;11478;51.094;7.030;2023-06-01T00:19:25;16.30;99.90
22623;DHT22;11478;51.094;7.030;2023-06-01T00:22:07;16.30;99.90
22623;DHT22;11478;51.094;7.030;2023-06-01T00:24:34;16.30;99.90
22623;DHT22;11478;51.094;7.030;2023-06-01T00:27:29;16.30;99.90
22623;DHT22;11478;51.094;7.030;2023-06-01T00:29:55;16.30;99.90
22623;DHT22;11478;51.094;7.030;2023-06-01T00:32:40;16.30;99.90
22623;DHT22;11478;51.094;7.030;2023-06-01T00:35:10;16.20;99.90
22623;DHT22;11478;51.094;7.030;2023-06-01T00:37:55;16.20;99.90
22623;DHT22;11478;51.094;7.030;2023-06-01T00:40:24;16.20;99.90
22623;DHT22;11478;51.094;7.030;2023-06-01T00:43:07;16.10;99.90
22623;DHT22;11478;51.094;7.030;2023-06-01T00:45:42;16.10;99.90
22623;DHT22;11478;51.094;7.030;2023-06-01T00:48:22;16.10;99.90
22623;DHT22;11478;51.094;7.030;2023-06-01T00:50:49;16.00;99.90
22623;DHT22;11478;51.094;7.030;2023-06-01T00:53:37;16.00;99.90
22623;DHT22;11478;51.094;7.030;2023-06-01T00:56:03;16.00;99.90
22623;DHT22;11478;51.094;7.030;2023-06-01T00:58:52;16.00;99.90
22623;DHT22;11478;51.094;7.030;2023-06-01T01:01:18;15.90;99.90
22623;DHT22;11478;51.094;7.030;2023-06-01T01:04:07;15.90;99.90
22623;DHT22;11478;51.094;7.030;2023-06-01T01:09:39;15.80;99.90
22623;DHT22;11478;51.094;7.030;2023-06-01T01:12:42;15.80;99.90
22623;DHT22;11478;51.094;7.030;2023-06-01T01:15:29;15.70;99.90
22623;DHT22;11478;51.094;7.030;2023-06-01T01:18:04;15.70;99.90
22623;DHT22;11478;51.094;7.030;2023-06-01T01:20:41;15.70;99.90
22623;DHT22;11478;51.094;7.030;2023-06-01T01:23:20;15.60;99.90
22623;DHT22;11478;51.094;7.030;2023-06-01T01:28:56;15.50;99.90
22623;DHT22;11478;51.094;7.030;2023-06-01T01:31:26;15.40;99.90
22623;DHT22;11478;51.094;7.030;2023-06-01T01:33:55;15.30;99.90
22623;DHT22;11478;51.094;7.030;2023-06-01T01:36:41;15.20;99.90
22623;DHT22;11478;51.094;7.030;2023-06-01T01:39:07;15.10;99.90
22623;DHT22;11478;51.094;7.030;2023-06-01T01:41:33;15.10;99.90
22623;DHT22;11478;51.094;7.030;2023-06-01T01:43:59;14.90;99.90
22623;DHT22;11478;51.094;7.030;2023-06-01T01:46:28;14.90;99.90
22623;DHT22;11478;51.094;7.030;2023-06-01T01:49:18;14.80;99.90
22623;DHT22;11478;51.094;7.030;2023-06-01T01:54:37;14.50;99.90
22623;DHT22;11478;51.094;7.030;2023-06-01T01:57:06;14.50;99.90
22623;DHT22;11478;51.094;7.030;2023-06-01T01:59:33;14.40;99.90
22623;DHT22;11478;51.094;7.030;2023-06-01T02:02:02;14.30;99.90
22623;DHT22;11478;51.094;7.030;2023-06-01T02:04:29;14.20;99.90
22623;DHT22;11478;51.094;7.030;2023-06-01T02:06:59;14.10;99.90
22623;DHT22;11478;51.094;7.030;2023-06-01T02:09:30;14.10;99.90
22623;DHT22;11478;51.094;7.030;2023-06-01T02:11:59;14.00;99.90
22623;DHT22;11478;51.094;7.030;2023-06-01T02:14:25;13.90;99.90
22623;DHT22;11478;51.094;7.030;2023-06-01T02:17:03;13.90;99.90
22623;DHT22;11478;51.094;7.030;2023-06-01T02:19:31;13.80;99.90
22623;DHT22;11478;51.094;7.030;2023-06-01T02:22:05;13.70;99.90
22623;DHT22;11478;51.094;7.030;2023-06-01T02:24:30;13.70;99.90
22623;DHT22;11478;51.094;7.030;2023-06-01T02:26:56;13.60;99.90
22623;DHT22;11478;51.094;7.030;2023-06-01T02:29:23;13.50;99.90
22623;DHT22;11478;51.094;7.030;2023-06-01T02:31:50;13.40;99.90
22623;DHT22;11478;51.094;7.030;2023-06-01T02:34:20;13.40;99.90
22623;DHT22;11478;51.094;7.030;2023-06-01T02:36:46;13.30;99.90
22623;DHT22;11478;51.094;7.030;2023-06-01T02:39:14;13.20;99.90
22623;DHT22;11478;51.094;7.030;2023-06-01T02:41:40;13.10;99.90
22623;DHT22;11478;51.094;7.030;2023-06-01T02:44:06;13.00;99.90
22623;DHT22;11478;51.094;7.030;2023-06-01T02:46:33;12.80;99.90
22623;DHT22;11478;51.094;7.030;2023-06-01T02:49:02;12.70;99.90
22623;DHT22;11478;51.094;7.030;2023-06-01T02:51:45;12.50;99.90
22623;DHT22;11478;51.094;7.030;2023-06-01T02:54:17;12.40;99.90
22623;DHT22;11478;51.094;7.030;2023-06-01T02:56:53;12.30;99.90
22623;DHT22;11478;51.094;7.030;2023-06-01T02:59:22;12.20;99.90
22623;DHT22;11478;51.094;7.030;2023-06-01T03:01:49;12.10;99.90
22623;DHT22;11478;51.094;7.030;2023-06-01T03:04:15;12.10;99.90
22623;DHT22;11478;51.094;7.030;2023-06-01T03:06:55;12.00;99.90
22623;DHT22;11478;51.094;7.030;2023-06-01T03:09:23;12.00;99.90
22623;DHT22;11478;51.094;7.030;2023-06-01T03:11:59;12.00;99.90
22623;DHT22;11478;51.094;7.030;2023-06-01T03:14:36;11.90;99.90
22623;DHT22;11478;51.094;7.030;2023-06-01T03:17:05;11.90;99.90
22623;DHT22;11478;51.094;7.030;2023-06-01T03:19:31;11.80;99.90
22623;DHT22;11478;51.094;7.030;2023-06-01T03:21:58;11.80;99.90
22623;DHT22;11478;51.094;7.030;2023-06-01T03:24:24;11.70;99.90
22623;DHT22;11478;51.094;7.030;2023-06-01T03:26:53;11.60;99.90
22623;DHT22;11478;51.094;7.030;2023-06-01T03:29:19;11.50;99.90
22623;DHT22;11478;51.094;7.030;2023-06-01T03:31:47;11.50;99.90
22623;DHT22;11478;51.094;7.030;2023-06-01T03:34:12;11.40;99.90
22623;DHT22;11478;51.094;7.030;2023-06-01T03:36:38;11.40;99.90
22623;DHT22;11478;51.094;7.030;2023-06-01T03:39:04;11.30;99.90
22623;DHT22;11478;51.094;7.030;2023-06-01T03:41:37;11.30;99.90
22623;DHT22;11478;51.094;7.030;2023-06-01T03:44:04;11.30;99.90
22623;DHT22;11478;51.094;7.030;2023-06-01T03:46:32;11.30;99.90
22623;DHT22;11478;51.094;7.030;2023-06-01T03:48:58;11.30;99.90
22623;DHT22;11478;51.094;7.030;2023-06-01T03:51:27;11.30;99.90
22623;DHT22;11478;51.094;7.030;2023-06-01T03:53:53;11.20;99.90
22623;DHT22;11478;51.094;7.030;2023-06-01T03:56:40;11.20;99.90
22623;DHT22;11478;51.094;7.030;2023-06-01T03:59:14;11.20;99.90
22623;DHT22;11478;51.094;7.030;2023-06-01T04:01:53;11.10;99.90
22623;DHT22;11478;51.094;7.030;2023-06-01T04:04:23;11.10;99.90
22623;DHT22;11478;51.094;7.030;2023-06-01T04:07:10;11.10;99.90
22623;DHT22;11478;51.094;7.030;2023-06-01T04:09:45;11.10;99.90
22623;DHT22;11478;51.094;7.030;2023-06-01T04:12:27;11.00;99.90
22623;DHT22;11478;51.094;7.030;2023-06-01T04:14:59;11.10;99.90
22623;DHT22;11478;51.094;7.030;2023-06-01T04:17:40;11.10;99.90
22623;DHT22;11478;51.094;7.030;2023-06-01T04:20:19;11.20;99.90
22623;DHT22;11478;51.094;7.030;2023-06-01T04:23:06;11.10;99.90
22623;DHT22;11478;51.094;7.030;2023-06-01T04:25:35;11.10;99.90
22623;DHT22;11478;51.094;7.030;2023-06-01T04:28:19;11.10;99.90
22623;DHT22;11478;51.094;7.030;2023-06-01T04:30:46;11.20;99.90
22623;DHT22;11478;51.094;7.030;2023-06-01T04:33:21;11.20;99.90
22623;DHT22;11478;51.094;7.030;2023-06-01T04:36:10;11.30;99.90
22623;DHT22;11478;51.094;7.030;2023-06-01T04:39:30;11.30;99.90
22623;DHT22;11478;51.094;7.030;2023-06-01T04:41:56;11.40;99.90
22623;DHT22;11478;51.094;7.030;2023-06-01T04:44:24;11.50;99.90
22623;DHT22;11478;51.094;7.030;2023-06-01T04:46:52;11.60;99.90
22623;DHT22;11478;51.094;7.030;2023-06-01T04:49:22;11.60;99.90
22623;DHT22;11478;51.094;7.030;2023-06-01T04:51:51;11.80;99.90
22623;DHT22;11478;51.094;7.030;2023-06-01T04:54:43;11.80;99.90
22623;DHT22;11478;51.094;7.030;2023-06-01T04:57:11;11.90;99.90
22623;DHT22;11478;51.094;7.030;2023-06-01T04:59:43;12.00;99.90
22623;DHT22;11478;51.094;7.030;2023-06-01T05:02:17;12.10;99.90
22623;DHT22;11478;51.094;7.030;2023-06-01T05:04:44;12.10;99.90
22623;DHT22;11478;51.094;7.030;2023-06-01T05:07:32;12.30;99.90
22623;DHT22;11478;51.094;7.030;2023-06-01T05:10:06;12.30;99.90
22623;DHT22;11478;51.094;7.030;2023-06-01T05:12:45;12.40;99.90
22623;DHT22;11478;51.094;7.030;2023-06-01T05:15:19;12.50;99.90
22623;DHT22;11478;51.094;7.030;2023-06-01T05:17:46;12.50;99.90
22623;DHT22;11478;51.094;7.030;2023-06-01T05:20:15;12.60;99.90
22623;DHT22;11478;51.094;7.030;2023-06-01T05:23:18;12.60;99.90
22623;DHT22;11478;51.094;7.030;2023-06-01T05:25:44;12.70;99.90
22623;DHT22;11478;51.094;7.030;2023-06-01T05:28:20;12.70;99.90
22623;DHT22;11478;51.094;7.030;2023-06-01T05:30:46;12.80;99.90
22623;DHT22;11478;51.094;7.030;2023-06-01T05:33:45;12.90;99.90
22623;DHT22;11478;51.094;7.030;2023-06-01T05:36:11;12.90;99.90
22623;DHT22;11478;51.094;7.030;2023-06-01T05:39:00;13.00;99.90
22623;DHT22;11478;51.094;7.030;2023-06-01T05:41:27;13.10;99.90
22623;DHT22;11478;51.094;7.030;2023-06-01T05:46:52;13.20;99.90
22623;DHT22;11478;51.094;7.030;2023-06-01T05:49:52;13.20;99.90
22623;DHT22;11478;51.094;7.030;2023-06-01T05:52:18;13.30;99.90
22623;DHT22;11478;51.094;7.030;2023-06-01T05:54:56;13.30;99.90
22623;DHT22;11478;51.094;7.030;2023-06-01T05:57:22;13.30;99.90
22623;DHT22;11478;51.094;7.030;2023-06-01T06:00:02;13.40;99.90
22623;DHT22;11478;51.094;7.030;2023-06-01T06:02:30;13.40;99.90
22623;DHT22;11478;51.094;7.030;2023-06-01T06:05:16;13.50;99.90
22623;DHT22;11478;51.094;7.030;2023-06-01T06:07:42;13.50;99.90
22623;DHT22;11478;51.094;7.030;2023-06-01T06:10:31;13.60;99.90
22623;DHT22;11478;51.094;7.030;2023-06-01T06:12:57;13.70;99.90
22623;DHT22;11478;51.094;7.030;2023-06-01T06:15:46;13.70;99.90
22623;DHT22;11478;51.094;7.030;2023-06-01T06:18:15;13.80;99.90
22623;DHT22;11478;51.094;7.030;2023-06-01T06:21:01;13.90;99.90
22623;DHT22;11478;51.094;7.030;2023-06-01T06:23:27;13.90;99.90
22623;DHT22;11478;51.094;7.030;2023-06-01T06:26:17;14.00;99.90
22623;DHT22;11478;51.094;7.030;2023-06-01T06:28:43;14.00;99.90
22623;DHT22;11478;51.094;7.030;2023-06-01T06:31:42;14.00;99.90
22623;DHT22;11478;51.094;7.030;2023-06-01T06:34:08;14.10;99.90
22623;DHT22;11478;51.094;7.030;2023-06-01T06:36:38;14.10;99.90
22623;DHT22;11478;51.094;7.030;2023-06-01T06:39:11;14.20;99.90
22623;DHT22;11478;51.094;7.030;2023-06-01T06:41:41;14.30;99.90
22623;DHT22;11478;51.094;7.030;2023-06-01T06:44:10;14.40;99.90
22623;DHT22;11478;51.094;7.030;2023-06-01T06:46:37;14.40;99.90
22623;DHT22;11478;51.094;7.030;2023-06-01T06:49:03;14.40;99.90
22623;DHT22;11478;51.094;7.030;2023-06-01T06:51:44;14.30;99.90
22623;DHT22;11478;51.094;7.030;2023-06-01T06:54:10;14.30;99.90
22623;DHT22;11478;51.094;7.030;2023-06-01T06:56:36;14.30;99.90
22623;DHT22;11478;51.094;7.030;2023-06-01T06:59:05;14.30;99.90
22623;DHT22;11478;51.094;7.030;2023-06-01T07:01:48;14.40;99.90
22623;DHT22;11478;51.094;7.030;2023-06-01T07:04:14;14.40;99.90
22623;DHT22;11478;51.094;7.030;2023-06-01T07:06:53;14.50;99.90
22623;DHT22;11478;51.094;7.030;2023-06-01T07:09:19;14.50;99.90
22623;DHT22;11478;51.094;7.030;2023-06-01T07:11:48;14.60;99.90
22623;DHT22;11478;51.094;7.030;2023-06-01T07:14:15;14.60;99.90
22623;DHT22;11478;51.094;7.030;2023-06-01T07:16:45;14.70;99.90
22623;DHT22;11478;51.094;7.030;2023-06-01T07:19:12;14.70;99.90
22623;DHT22;11478;51.094;7.030;2023-06-01T07:21:54;14.70;99.90
22623;DHT22;11478;51.094;7.030;2023-06-01T07:24:20;14.70;99.90
22623;DHT22;11478;51.094;7.030;2023-06-01T07:26:47;14.70;99.90
22623;DHT22;11478;51.094;7.030;2023-06-01T07:29:16;14.70;99.90
22623;DHT22;11478;51.094;7.030;2023-06-01T07:31:42;14.80;99.90
22623;DHT22;11478;51.094;7.030;2023-06-01T07:34:09;14.80;99.90
22623;DHT22;11478;51.094;7.030;2023-06-01T07:36:46;14.80;99.90
22623;DHT22;11478;51.094;7.030;2023-06-01T07:39:15;14.80;99.90
22623;DHT22;11478;51.094;7.030;2023-06-01T07:42:08;14.80;99.90
22623;DHT22;11478;51.094;7.030;2023-06-01T07:44:34;14.90;99.90
22623;DHT22;11478;51.094;7.030;2023-06-01T07:47:00;15.00;99.90
22623;DHT22;11478;51.094;7.030;2023-06-01T07:49:26;15.00;99.90
22623;DHT22;11478;51.094;7.030;2023-06-01T07:51:59;15.10;99.90
22623;DHT22;11478;51.094;7.030;2023-06-01T07:54:26;15.20;99.90
22623;DHT22;11478;51.094;7.030;2023-06-01T07:56:55;15.30;99.90
22623;DHT22;11478;51.094;7.030;2023-06-01T07:59:22;15.30;99.90
22623;DHT22;11478;51.094;7.030;2023-06-01T08:01:50;15.30;99.90
22623;DHT22;11478;51.094;7.030;2023-06-01T08:04:18;15.30;99.90
22623;DHT22;11478;51.094;7.030;2023-06-01T08:07:05;15.40;99.90
22623;DHT22;11478;51.094;7.030;2023-06-01T08:09:33;15.40;99.90
22623;DHT22;11478;51.094;7.030;2023-06-01T08:12:00;15.50;99.90
22623;DHT22;11478;51.094;7.030;2023-06-01T08:14:26;15.60;99.90
22623;DHT22;11478;51.094;7.030;2023-06-01T08:17:03;15.60;99.90
22623;DHT22;11478;51.094;7.030;2023-06-01T08:19:33;15.70;99.90
22623;DHT22;11478;51.094;7.030;2023-06-01T08:22:00;15.90;99.90
22623;DHT22;11478;51.094;7.030;2023-06-01T08:24:26;16.10;99.90
22623;DHT22;11478;51.094;7.030;2023-06-01T08:26:55;16.10;99.90
22623;DHT22;11478;51.094;7.030;2023-06-01T08:29:24;16.00;99.90
22623;DHT22;11478;51.094;7.030;2023-06-01T08:31:52;15.90;99.90
22623;DHT22;11478;51.094;7.030;2023-06-01T08:34:18;15.90;99.90
22623;DHT22;11478;51.094;7.030;2023-06-01T08:36:45;15.90;99.90
22623;DHT22;11478;51.094;7.030;2023-06-01T08:39:23;15.90;99.90
22623;DHT22;11478;51.094;7.030;2023-06-01T08:42:20;15.90;99.90
22623;DHT22;11478;51.094;7.030;2023-06-01T08:44:57;15.90;99.90
22623;DHT22;11478;51.094;7.030;2023-06-01T08:47:24;15.80;99.90
22623;DHT22;11478;51.094;7.030;2023-06-01T08:49:53;15.80;99.90
22623;DHT22;11478;51.094;7.030;2023-06-01T08:52:25;15.90;99.90
22623;DHT22;11478;51.094;7.030;2023-06-01T08:54:54;15.90;99.90
22623;DHT22;11478;51.094;7.030;2023-06-01T08:57:21;16.00;99.90
22623;DHT22;11478;51.094;7.030;2023-06-01T08:59:47;16.00;99.90
22623;DHT22;11478;51.094;7.030;2023-06-01T09:02:20;16.00;99.90
22623;DHT22;11478;51.094;7.030;2023-06-01T09:04:48;16.10;99.90
22623;DHT22;11478;51.094;7.030;2023-06-01T09:07:16;16.00;99.90
22623;DHT22;11478;51.094;7.030;2023-06-01T09:09:43;16.00;99.90
22623;DHT22;11478;51.094;7.030;2023-06-01T09:12:28;16.00;99.90
22623;DHT22;11478;51.094;7.030;2023-06-01T09:15:22;16.00;99.90
22623;DHT22;11478;51.094;7.030;2023-06-01T09:17:51;16.10;99.90
22623;DHT22;11478;51.094;7.030;2023-06-01T09:20:28;16.00;99.90
22623;DHT22;11478;51.094;7.030;2023-06-01T09:22:54;16.00;99.90
22623;DHT22;11478;51.094;7.030;2023-06-01T09:25:25;16.00;99.90
22623;DHT22;11478;51.094;7.030;2023-06-01T09:27:59;16.10;99.90
22623;DHT22;11478;51.094;7.030;2023-06-01T09:30:37;16.10;99.90
22623;DHT22;11478;51.094;7.030;2023-06-01T09:35:47;16.40;99.90
22623;DHT22;11478;51.094;7.030;2023-06-01T09:38:23;16.50;99.90
22623;DHT22;11478;51.094;7.030;2023-06-01T09:41:00;16.50;99.90
22623;DHT22;11478;51.094;7.030;2023-06-01T09:43:26;16.50;99.90
22623;DHT22;11478;51.094;7.030;2023-06-01T09:46:07;16.50;99.90
22623;DHT22;11478;51.094;7.030;2023-06-01T09:48:33;16.60;99.90
22623;DHT22;11478;51.094;7.030;2023-06-01T09:51:01;16.50;99.90
22623;DHT22;11478;51.094;7.030;2023-06-01T09:53:27;16.60;99.90
22623;DHT22;11478;51.094;7.030;2023-06-01T09:55:57;16.70;99.90
22623;DHT22;11478;51.094;7.030;2023-06-01T09:58:23;16.70;99.90
22623;DHT22;11478;51.094;7.030;2023-06-01T10:00:57;16.70;99.90
22623;DHT22;11478;51.094;7.030;2023-06-01T10:03:26;16.80;99.90
22623;DHT22;11478;51.094;7.030;2023-06-01T10:05:54;16.90;99.90
22623;DHT22;11478;51.094;7.030;2023-06-01T10:08:22;17.00;99.90
22623;DHT22;11478;51.094;7.030;2023-06-01T10:10:49;17.00;99.90
22623;DHT22;11478;51.094;7.030;2023-06-01T10:13:18;17.10;99.90
22623;DHT22;11478;51.094;7.030;2023-06-01T10:15:49;17.20;99.90
22623;DHT22;11478;51.094;7.030;2023-06-01T10:18:17;17.20;99.90
22623;DHT22;11478;51.094;7.030;2023-06-01T10:20:45;17.30;99.90
22623;DHT22;11478;51.094;7.030;2023-06-01T10:23:12;17.30;99.90
22623;DHT22;11478;51.094;7.030;2023-06-01T10:25:47;17.30;99.90
22623;DHT22;11478;51.094;7.030;2023-06-01T10:28:16;17.40;99.90
22623;DHT22;11478;51.094;7.030;2023-06-01T10:33:58;17.70;99.90
22623;DHT22;11478;51.094;7.030;2023-06-01T10:36:24;17.70;99.90
22623;DHT22;11478;51.094;7.030;2023-06-01T10:39:27;17.80;99.90
22623;DHT22;11478;51.094;7.030;2023-06-01T10:41:57;17.80;99.90
22623;DHT22;11478;51.094;7.030;2023-06-01T10:44:50;17.80;99.90
22623;DHT22;11478;51.094;7.030;2023-06-01T10:52:28;18.30;99.90
22623;DHT22;11478;51.094;7.030;2023-06-01T10:57:43;18.40;99.90
22623;DHT22;11478;51.094;7.030;2023-06-01T11:03:04;18.40;99.90
22623;DHT22;11478;51.094;7.030;2023-06-01T11:06:16;18.50;99.90
22623;DHT22;11478;51.094;7.030;2023-06-01T11:11:02;18.50;99.90
22623;DHT22;11478;51.094;7.030;2023-06-01T11:13:34;18.50;99.90
22623;DHT22;11478;51.094;7.030;2023-06-01T11:21:24;18.60;99.90
22623;DHT22;11478;51.094;7.030;2023-06-01T11:23:52;18.70;99.90
22623;DHT22;11478;51.094;7.030;2023-06-01T11:26:22;18.80;99.90
22623;DHT22;11478;51.094;7.030;2023-06-01T11:28:51;18.80;99.90
22623;DHT22;11478;51.094;7.030;2023-06-01T11:31:19;18.80;99.90
22623;DHT22;11478;51.094;7.030;2023-06-01T11:33:53;18.80;99.90
22623;DHT22;11478;51.094;7.030;2023-06-01T11:36:30;18.90;99.90
22623;DHT22;11478;51.094;7.030;2023-06-01T11:39:02;19.00;99.90
22623;DHT22;11478;51.094;7.030;2023-06-01T11:41:32;19.10;99.90
22623;DHT22;11478;51.094;7.030;2023-06-01T11:43:58;19.10;99.90
22623;DHT22;11478;51.094;7.030;2023-06-01T11:46:24;19.10;99.90
22623;DHT22;11478;51.094;7.030;2023-06-01T11:52:08;19.20;99.90
22623;DHT22;11478;51.094;7.030;2023-06-01T11:54:39;19.20;99.90
22623;DHT22;11478;51.094;7.030;2023-06-01T11:57:05;19.20;99.90
22623;DHT22;11478;51.094;7.030;2023-06-01T11:59:49;19.30;99.90
22623;DHT22;11478;51.094;7.030;2023-06-01T12:02:25;19.30;99.90
22623;DHT22;11478;51.094;7.030;2023-06-01T12:05:06;19.40;99.90
22623;DHT22;11478;51.094;7.030;2023-06-01T12:07:51;19.40;99.90
22623;DHT22;11478;51.094;7.030;2023-06-01T12:10:18;19.40;99.90
22623;DHT22;11478;51.094;7.030;2023-06-01T12:12:45;19.40;99.90
22623;DHT22;11478;51.094;7.030;2023-06-01T12:15:13;19.40;99.90
22623;DHT22;11478;51.094;7.030;2023-06-01T12:17:53;19.50;99.90
22623;DHT22;11478;51.094;7.030;2023-06-01T12:20:30;19.60;99.90
22623;DHT22;11478;51.094;7.030;2023-06-01T12:22:57;19.60;99.90
22623;DHT22;11478;51.094;7.030;2023-06-01T12:25:24;19.60;99.90
22623;DHT22;11478;51.094;7.030;2023-06-01T12:28:11;19.60;99.90
22623;DHT22;11478;51.094;7.030;2023-06-01T12:30:40;19.70;99.90
22623;DHT22;11478;51.094;7.030;2023-06-01T12:33:06;19.70;99.90
22623;DHT22;11478;51.094;7.030;2023-06-01T12:35:32;19.70;99.90
22623;DHT22;11478;51.094;7.030;2023-06-01T12:38:09;19.70;99.90
22623;DHT22;11478;51.094;7.030;2023-06-01T12:40:38;19.80;99.90
22623;DHT22;11478;51.094;7.030;2023-06-01T12:43:05;19.80;99.90
22623;DHT22;11478;51.094;7.030;2023-06-01T12:45:45;19.80;99.90
22623;DHT22;11478;51.094;7.030;2023-06-01T12:48:33;19.90;99.90
22623;DHT22;11478;51.094;7.030;2023-06-01T12:51:00;20.00;99.90
22623;DHT22;11478;51.094;7.030;2023-06-01T12:53:33;19.90;99.90
22623;DHT22;11478;51.094;7.030;2023-06-01T12:55:58;20.00;99.90
22623;DHT22;11478;51.094;7.030;2023-06-01T12:58:27;20.10;99.90
22623;DHT22;11478;51.094;7.030;2023-06-01T13:00:53;20.10;99.90
22623;DHT22;11478;51.094;7.030;2023-06-01T13:03:22;20.10;99.90
22623;DHT22;11478;51.094;7.030;2023-06-01T13:05:48;20.10;99.90
22623;DHT22;11478;51.094;7.030;2023-06-01T13:08:16;20.10;99.90
22623;DHT22;11478;51.094;7.030;2023-06-01T13:10:42;20.20;99.90
22623;DHT22;11478;51.094;7.030;2023-06-01T13:13:10;20.20;99.90
22623;DHT22;11478;51.094;7.030;2023-06-01T13:15:42;20.30;99.90
22623;DHT22;11478;51.094;7.030;2023-06-01T13:18:09;20.30;99.90
22623;DHT22;11478;51.094;7.030;2023-06-01T13:20:36;20.40;99.90
22623;DHT22;11478;51.094;7.030;2023-06-01T13:23:05;20.40;99.90
22623;DHT22;11478;51.094;7.030;2023-06-01T13:25:32;20.40;99.90
22623;DHT22;11478;51.094;7.030;2023-06-01T13:28:03;20.40;99.90
22623;DHT22;11478;51.094;7.030;2023-06-01T13:30:29;20.30;99.90
22623;DHT22;11478;51.094;7.030;2023-06-01T13:33:13;20.40;99.90
22623;DHT22;11478;51.094;7.030;2023-06-01T13:35:38;20.50;99.90
22623;DHT22;11478;51.094;7.030;2023-06-01T13:38:04;20.60;99.90
22623;DHT22;11478;51.094;7.030;2023-06-01T13:40:30;20.60;99.90
22623;DHT22;11478;51.094;7.030;2023-06-01T13:43:06;20.70;99.90
22623;DHT22;11478;51.094;7.030;2023-06-01T13:45:31;20.70;99.90
22623;DHT22;11478;51.094;7.030;2023-06-01T13:47:59;20.70;99.90
22623;DHT22;11478;51.094;7.030;2023-06-01T13:50:24;20.70;99.90
22623;DHT22;11478;51.094;7.030;2023-06-01T13:52:52;20.70;99.90
22623;DHT22;11478;51.094;7.030;2023-06-01T13:55:21;20.70;99.90
22623;DHT22;11478;51.094;7.030;2023-06-01T13:57:47;20.70;99.90
22623;DHT22;11478;51.094;7.030;2023-06-01T14:00:19;20.70;99.90
22623;DHT22;11478;51.094;7.030;2023-06-01T14:02:54;20.70;99.90
22623;DHT22;11478;51.094;7.030;2023-06-01T14:05:20;20.70;99.90
22623;DHT22;11478;51.094;7.030;2023-06-01T14:07:46;20.70;99.90
22623;DHT22;11478;51.094;7.030;2023-06-01T14:10:12;20.70;99.90
22623;DHT22;11478;51.094;7.030;2023-06-01T14:12:44;20.80;99.90
22623;DHT22;11478;51.094;7.030;2023-06-01T14:15:10;20.70;99.90
22623;DHT22;11478;51.094;7.030;2023-06-01T14:17:39;20.70;99.90
22623;DHT22;11478;51.094;7.030;2023-06-01T14:20:05;20.80;99.90
22623;DHT22;11478;51.094;7.030;2023-06-01T14:22:32;20.80;99.90
22623;DHT22;11478;51.094;7.030;2023-06-01T14:24:57;20.80;99.90
22623;DHT22;11478;51.094;7.030;2023-06-01T14:27:25;20.80;99.90
22623;DHT22;11478;51.094;7.030;2023-06-01T14:29:51;20.80;99.90
22623;DHT22;11478;51.094;7.030;2023-06-01T14:32:19;20.80;99.90
22623;DHT22;11478;51.094;7.030;2023-06-01T14:34:45;20.80;99.90
22623;DHT22;11478;51.094;7.030;2023-06-01T14:37:29;20.80;99.90
22623;DHT22;11478;51.094;7.030;2023-06-01T14:39:57;20.80;99.90
22623;DHT22;11478;51.094;7.030;2023-06-01T14:42:22;20.80;99.90
22623;DHT22;11478;51.094;7.030;2023-06-01T14:44:48;20.80;99.90
22623;DHT22;11478;51.094;7.030;2023-06-01T14:47:24;20.80;99.90
22623;DHT22;11478;51.094;7.030;2023-06-01T14:49:50;20.70;99.90
22623;DHT22;11478;51.094;7.030;2023-06-01T14:52:16;20.70;99.90
22623;DHT22;11478;51.094;7.030;2023-06-01T14:54:45;20.70;99.90
22623;DHT22;11478;51.094;7.030;2023-06-01T14:57:11;20.70;99.90
22623;DHT22;11478;51.094;7.030;2023-06-01T14:59:37;20.70;99.90
22623;DHT22;11478;51.094;7.030;2023-06-01T15:02:03;20.70;99.90
22623;DHT22;11478;51.094;7.030;2023-06-01T15:04:30;20.70;99.90
22623;DHT22;11478;51.094;7.030;2023-06-01T15:06:58;20.70;99.90
22623;DHT22;11478;51.094;7.030;2023-06-01T15:09:23;20.70;99.90
22623;DHT22;11478;51.094;7.030;2023-06-01T15:11:53;20.80;99.90
22623;DHT22;11478;51.094;7.030;2023-06-01T15:14:19;20.70;99.90
22623;DHT22;11478;51.094;7.030;2023-06-01T15:16:46;20.80;99.90
22623;DHT22;11478;51.094;7.030;2023-06-01T15:19:12;20.80;99.90
22623;DHT22;11478;51.094;7.030;2023-06-01T15:21:38;20.70;99.90
22623;DHT22;11478;51.094;7.030;2023-06-01T15:24:04;20.70;99.90
22623;DHT22;11478;51.094;7.030;2023-06-01T15:26:41;20.70;99.90
22623;DHT22;11478;51.094;7.030;2023-06-01T15:29:07;20.80;99.90
22623;DHT22;11478;51.094;7.030;2023-06-01T15:31:33;20.90;99.90
22623;DHT22;11478;51.094;7.030;2023-06-01T15:33:59;21.00;99.90
22623;DHT22;11478;51.094;7.030;2023-06-01T15:36:25;21.00;99.90
22623;DHT22;11478;51.094;7.030;2023-06-01T15:38:51;21.00;99.90
22623;DHT22;11478;51.094;7.030;2023-06-01T15:41:21;20.90;99.90
22623;DHT22;11478;51.094;7.030;2023-06-01T15:43:52;20.80;99.90
22623;DHT22;11478;51.094;7.030;2023-06-01T15:46:18;20.70;99.90
22623;DHT22;11478;51.094;7.030;2023-06-01T15:48:52;20.50;99.90
22623;DHT22;11478;51.094;7.030;2023-06-01T15:51:18;20.40;99.90
22623;DHT22;11478;51.094;7.030;2023-06-01T15:53:44;20.30;99.90
22623;DHT22;11478;51.094;7.030;2023-06-01T15:56:10;20.30;99.90
22623;DHT22;11478;51.094;7.030;2023-06-01T15:58:37;20.30;99.90
22623;DHT22;11478;51.094;7.030;2023-06-01T16:01:02;20.20;99.90
22623;DHT22;11478;51.094;7.030;2023-06-01T16:03:56;20.20;99.90
22623;DHT22;11478;51.094;7.030;2023-06-01T16:06:23;20.00;99.90
22623;DHT22;11478;51.094;7.030;2023-06-01T16:08:50;19.90;99.90
22623;DHT22;11478;51.094;7.030;2023-06-01T16:11:16;19.90;99.90
22623;DHT22;11478;51.094;7.030;2023-06-01T16:13:46;19.80;99.90
22623;DHT22;11478;51.094;7.030;2023-06-01T16:16:12;19.70;99.90
22623;DHT22;11478;51.094;7.030;2023-06-01T16:18:45;19.60;99.90
22623;DHT22;11478;51.094;7.030;2023-06-01T16:21:13;19.70;99.90
22623;DHT22;11478;51.094;7.030;2023-06-01T16:23:40;19.60;99.90
22623;DHT22;11478;51.094;7.030;2023-06-01T16:26:08;19.70;99.90
22623;DHT22;11478;51.094;7.030;2023-06-01T16:28:34;19.70;99.90
22623;DHT22;11478;51.094;7.030;2023-06-01T16:31:03;19.60;99.90
22623;DHT22;11478;51.094;7.030;2023-06-01T16:33:31;19.60;99.90
22623;DHT22;11478;51.094;7.030;2023-06-01T16:36:05;19.50;99.90
22623;DHT22;11478;51.094;7.030;2023-06-01T16:38:31;19.40;99.90